福岡 の空港の天気 - METARとTAF

福岡空港 ( RJFF / FUK ) - 福岡県福岡市
飛行場実況気象(Metar)
観測時間07/22 11:00 JST (07/22 02:00 UTC)
風向・風速南南東 3m/s
視程10km以上
天気現象
少しの雲 雲底高度 240m
全天の4割程度の雲 雲底高度 610m
全天の8割程度の雲 雲底高度 910m
気温29℃
湿度79%
気圧1008hPa
METARRJFF 220200Z 15005KT 030V200 9999 FEW008 SCT020 BKN030 29/25 Q1008 BECMG 26005KT TEMPO FM0300 3000 TSRA BR RMK 1ST008 4CU020 5CU030 A2978
過去の天気等 Google飛行場航空写真 Wunderground天気予報

過去48時間のMETAR

飛行場予報(TAF)
発表時間: 7/22 09:40 JST (7/22 00:40 UTC)
予報対象時間: 22日9時 JST ~ 23日15時 JST
風向・風速南 2m/s
視程10km以上
少しの雲 雲底高度 460m
全天の8割程度の雲 雲底高度 1370m
22日11時 JST ~ 22日13時 JST に徐々に
風向・風速西 3m/s
22日11時 JST ~ 22日14時 JST に一時的に
視程3000m
天気現象雷雨 もや
少しの雲 雲底高度 150m
全天の4割程度の雲 雲底高度 300m
全天の8割程度の雲 雲底高度 610m
少しの積乱雲 雲底高度 760m
22日18時 JST ~ 22日20時 JST に徐々に
風向・風速南東 3m/s
23日9時 JST ~ 23日12時 JST に徐々に
風向・風速西北西 4m/s
TAF AMD RJFF 220040Z 2200/2306 19004KT 9999 FEW015 BKN045
BECMG 2202/2204 27005KT
TEMPO 2202/2205 3000 TSRA BR FEW005 SCT010 BKN020 FEW025CB
BECMG 2209/2211 14006KT
BECMG 2300/2303 30008KT
日本の空港のMETAR・TAFへのリンク

RJTT 東京国際空港
RJAA 新東京国際空港
RJBB 関西国際空港
RJOO 大阪空港
RJGG 中部国際空港
RJCC 新千歳空港
RJFF 福岡空港
ROAH 那覇空港


RJEC 旭川空港
RJCH 函館空港
RJCK 釧路空港
RJCM 女満別空港
RJCB 帯広空港
RJSA 青森空港
RJSS 仙台空港
RJSK 秋田空港
RJSF 福島空港
RJAH 茨城空港
RJSN 新潟空港
RJNT 富山空港
RJNK 小松飛行場
RJNS 静岡空港
RJOH 美保飛行場
RJOC 出雲空港
RJOB 岡山空港
RJOA 広島空港
RJOI 岩国飛行場
RJOT 高松空港
RJOM 松山空港
RJOK 高知空港
RJFR 北九州空港
RJFT 熊本空港
RJFU 長崎空港
RJFS 佐賀空港
RJFO 大分空港
RJFM 宮崎空港
RJFK 鹿児島空港
ROIG 石垣島空港
RJTY 横田飛行場
ROTM 普天間飛行場
RODN 嘉手納飛行場